Station: WOOMERA

  Atmospheric Gas Attenuation - ITU Rec 676-11   --------------- db/100km ---------------
Date Time Temp RH % AH g/m3 Dew Point Wind Direction Speed kph Gust kph Barometer mB Rainfall Since 9am 24GHz 47GHz 76GHz 122GHz 134GHz 241GHz
27 14:40 21.5 19 3.58 -3.1 19 20 1021.9 0 8.8 17.3 19.9 51.3 35.1 117.0
27 14:30 21.4 18 3.37 -3.9 20 32 1022 0 8.3 17.1 19.3 49.7 33.1 109.8
27 14:20 20.3 19 3.34 -4 15 17 1022.2 0 8.3 17.3 19.5 50.2 33.2 110.2
27 14:10 20.9 18 3.28 -4.3 19 20 1022.2 0 8.2 17.1 19.2 49.3 32.4 107.4
27 14:00 20.9 19 3.46 -3.6 24 35 1022.3 0 8.5 17.3 19.7 50.8 34.2 113.6
27 13:50 20.6 20 3.58 -3.1 30 35 1022.4 0 8.8 17.5 20.2 51.9 35.5 118.3
27 13:40 20.6 20 3.58 -3.1 24 26 1022.5 0 8.8 17.5 20.2 51.9 35.5 118.3
27 13:30 20.5 20 3.56 -3.2 20 32 1022.6 0 8.7 17.5 20.1 51.8 35.4 117.7
27 13:20 20.5 21 3.74 -2.5 24 30 1022.9 0 9.1 17.7 20.7 53.3 37.2 124.1
27 13:10 20.5 20 3.56 -3.2 26 33 1023 0 8.7 17.5 20.2 51.9 35.4 117.8
27 13:00 20 20 3.46 -3.6 26 39 1022.9 0 8.6 17.5 20.0 51.3 34.6 114.9
27 12:50 19.7 21 3.57 -3.2 22 28 1022.9 0 8.8 17.7 20.4 52.4 35.8 119.2
27 12:40 19.9 21 3.61 -3 22 28 1023.2 0 8.9 17.7 20.5 52.6 36.1 120.4
27 12:30 19.3 23 3.81 -2.3 28 39 1023.2 0 9.3 18.1 21.2 54.7 38.4 128.4
27 12:20 19.4 23 3.84 -2.2 22 30 1023.3 0 9.4 18.1 21.3 54.9 38.7 129.4
27 12:10 19.4 23 3.84 -2.2 20 26 1023.6 0 9.4 18.1 21.3 54.9 38.7 129.4
27 12:00 19 24 3.91 -2 26 41 1023.9 0 9.5 18.3 21.6 55.7 39.6 132.6
27 11:50 19.2 24 3.96 -1.8 30 33 1023.9 0 9.6 18.3 21.7 56.0 40.0 134.1
27 11:40 18.3 25 3.91 -2 28 30 1024.2 0 9.5 18.4 21.8 56.2 40.0 133.8
27 11:30 18.7 25 4 -1.7 26 37 1024.2 0 9.7 18.5 22.0 56.7 40.7 136.4
27 11:20 18 26 3.99 -1.8 32 35 1024.4 0 9.7 18.6 22.1 57.1 41.0 137.2
27 11:10 18.1 28 4.33 -0.7 26 32 1024.4 0 10.4 19.0 23.2 60.0 44.5 149.7
27 11:00 18 28 4.3 -0.8 28 37 1024.5 0 10.4 19.0 23.1 59.8 44.2 148.8
27 10:50 17.6 28 4.2 -1.1 28 35 1024.8 0 10.2 18.9 22.9 59.2 43.4 145.8
27 10:40 17.7 29 4.38 -0.5 32 35 1024.9 0 10.5 19.2 23.5 60.7 45.3 152.4
27 10:30 17.4 31 4.59 0.1 28 35 1024.9 0 11.0 19.5 24.3 62.8 47.7 160.9
27 10:20 16.7 33 4.69 0.4 28 30 1025 0 11.2 19.8 24.8 64.2 49.2 166.1
27 10:10 16.4 33 4.61 0.1 30 35 1025.1 0 11.0 19.7 24.6 63.7 48.5 163.7
27 10:00 17 33 4.77 0.6 32 37 1025.3 0 11.4 19.8 25.0 64.7 49.9 168.7
27 09:50 16.6 35 4.94 1.1 30 32 1025.4 0 11.7 20.2 25.7 66.6 52.1 176.1
27 09:40 16 38 5.18 1.7 20 26 1025.5 0 12.3 20.6 26.7 69.2 55.2 187.0
27 09:30 15.8 38 5.12 1.5 28 35 1025.4 0 12.1 20.6 26.5 68.8 54.6 185.0
27 09:20 15.3 41 5.35 2.1 28 30 1025.4 0 12.6 21.0 27.5 71.4 57.6 195.4
27 09:10 15.1 43 5.55 2.6 26 30 1025.4 0 13.1 21.3 28.3 73.5 60.1 204.0
27 09:00 14.8 44 5.57 2.7 28 33 1025.3 0 13.1 21.4 28.4 73.9 60.5 205.6
27 08:50 14.6 45 5.63 2.8 24 30 1025.4 0 13.2 21.6 28.7 74.7 61.4 208.6
27 08:40 14.3 48 5.9 3.5 26 30 1025.5 0 13.8 22.0 29.8 77.5 64.8 220.6
27 08:30 13.8 49 5.84 3.3 24 32 1025.4 0 13.7 22.1 29.8 77.4 64.5 219.4
27 08:20 13.3 52 6.01 3.7 28 30 1025.3 0 14.1 22.4 30.6 79.6 66.9 228.0
27 08:10 12.9 57 6.42 4.6 20 24 1025.3 0 15.0 23.2 32.2 84.1 72.3 246.9
27 08:00 12.2 60 6.48 4.7 22 28 1025.2 0 15.1 23.4 32.7 85.4 73.7 251.6
27 07:50 11.7 64 6.69 5.1 20 20 1025.2 0 15.6 23.9 33.7 88.1 76.9 262.6
27 07:40 11.4 66 6.78 5.3 20 22 1025.1 0 15.8 24.1 34.2 89.3 78.3 267.6
27 07:30 10.6 69 6.74 5.2 17 20 1025 0 15.8 24.2 34.4 89.8 78.6 268.4
27 07:20 10 71 6.67 5 17 19 1024.9 0 15.6 24.3 34.4 89.8 78.3 267.3
27 07:10 9.7 72 6.64 4.9 15 17 1024.9 0 15.6 24.3 34.4 89.8 78.2 266.9
27 07:00 9.1 75 6.66 4.9 15 17 1024.8 0 15.6 24.5 34.7 90.7 79.0 269.8
27 06:50 8.7 76 6.58 4.7 15 17 1024.7 0 15.5 24.5 34.6 90.3 78.4 267.5
27 06:40 8.3 77 6.49 4.5 17 19 1024.7 0 15.3 24.5 34.4 89.8 77.6 264.6
27 06:30 8.1 78 6.49 4.5 17 19 1024.6 0 15.3 24.5 34.5 90.0 77.8 265.3
27 06:20 8 79 6.53 4.6 17 19 1024.5 0 15.4 24.6 34.7 90.5 78.4 267.5
27 06:10 7.9 79 6.49 4.5 19 20 1024.3 0 15.3 24.6 34.5 90.2 77.9 265.9
27 06:00 7.9 79 6.49 4.5 19 20 1024.2 0 15.3 24.5 34.5 90.2 77.9 265.9
27 05:50 7.9 78 6.41 4.3 19 20 1024.3 0 15.2 24.4 34.2 89.3 76.9 262.2
27 05:40 8.1 77 6.41 4.3 19 20 1024.2 0 15.1 24.4 34.1 89.1 76.7 261.5
27 05:30 8.2 77 6.45 4.4 19 20 1023.9 0 15.2 24.4 34.2 89.4 77.1 262.9
27 05:10 8.1 77 6.41 4.3 19 20 1023.7 0 15.1 24.3 34.1 89.0 76.6 261.4
27 04:40 8.2 75 6.28 4 17 17 1023.4 0 14.9 24.1 33.5 87.5 74.8 255.0
27 04:30 8.3 75 6.32 4.1 17 19 1023.4 0 14.9 24.1 33.7 87.8 75.2 256.5
27 04:20 8.3 74 6.24 3.9 17 19 1023.3 0 14.8 24.0 33.3 87.0 74.2 252.8
27 04:10 8.4 74 6.28 4 17 19 1023.3 0 14.9 24.0 33.4 87.3 74.6 254.3
27 04:00 8.4 74 6.28 4 17 19 1023.3 0 14.9 24.0 33.4 87.3 74.6 254.3
27 03:50 8.4 73 6.2 3.8 15 17 1023.3 0 14.7 23.9 33.1 86.4 73.6 250.7
27 03:40 8.3 73 6.16 3.8 17 17 1023.3 0 14.6 23.9 33.0 86.1 73.1 249.1
27 03:30 8.4 73 6.2 3.8 15 17 1023.4 0 14.7 23.9 33.1 86.4 73.6 250.7
27 03:20 8.4 73 6.2 3.8 15 15 1023.3 0 14.7 23.9 33.1 86.4 73.6 250.7
27 03:10 8.4 73 6.2 3.8 15 17 1023.3 0 14.7 23.9 33.1 86.4 73.6 250.7
27 03:00 8.6 72 6.19 3.8 17 17 1023.3 0 14.7 23.8 33.0 86.1 73.3 249.6
27 02:50 8.8 71 6.18 3.8 15 15 1023.4 0 14.6 23.8 32.9 85.8 72.9 248.5
27 02:40 8.9 70 6.13 3.7 17 17 1023.4 0 14.5 23.7 32.7 85.2 72.2 245.9
27 02:30 9.1 70 6.21 3.9 17 17 1023.4 0 14.7 23.7 32.9 85.8 73.1 248.9
27 02:20 9.1 69 6.12 3.7 17 17 1023.5 0 14.5 23.6 32.5 84.8 71.9 244.9
27 02:10 9.2 68 6.07 3.6 15 15 1023.5 0 14.4 23.5 32.3 84.2 71.2 242.3
27 02:00 9.4 68 6.15 3.8 15 17 1023.4 0 14.5 23.6 32.5 84.8 72.0 245.3
27 01:50 9.3 68 6.11 3.7 15 15 1023.4 0 14.5 23.5 32.4 84.5 71.6 243.8
27 01:40 9.3 68 6.11 3.7 15 15 1023.4 0 14.5 23.5 32.4 84.5 71.6 243.8
27 01:30 9.3 67 6.02 3.5 13 15 1023.3 0 14.3 23.4 32.1 83.6 70.4 239.7
27 01:20 9.3 66 5.93 3.3 15 15 1023.4 0 14.1 23.3 31.7 82.7 69.3 235.7
27 01:10 9.5 65 5.92 3.3 15 15 1023.4 0 14.0 23.2 31.6 82.3 69.0 234.7
27 01:00 9.9 64 5.98 3.4 13 15 1023.5 0 14.2 23.2 31.7 82.6 69.4 236.2
27 00:50 10.1 63 5.96 3.4 15 17 1023.5 0 14.1 23.1 31.5 82.1 69.0 234.7
27 00:40 10.4 62 5.98 3.4 15 17 1023.7 0 14.1 23.1 31.5 82.1 69.0 234.7
27 00:30 10.2 62 5.9 3.3 13 17 1023.7 0 14.0 23.0 31.3 81.4 68.1 231.8
27 00:20 10 62 5.83 3.1 13 15 1023.8 0 13.8 22.9 31.1 80.9 67.4 229.3
27 00:10 10 61 5.73 2.8 13 13 1023.8 0 13.6 22.8 30.7 79.9 66.2 224.9
27 00:00 10.3 59 5.65 2.7 13 15 1023.9 0 13.4 22.6 30.3 78.8 64.9 220.6
26 23:50 10.8 58 5.73 2.9 15 15 1023.8 0 13.6 22.6 30.4 79.1 65.5 222.7
26 23:40 11 57 5.71 2.8 15 17 1023.8 0 13.5 22.5 30.2 78.7 65.1 221.2
26 23:30 10.5 52 5.04 1.1 9 17 1023.8 0 12.1 21.6 27.9 72.6 57.3 193.8
26 23:20 10.9 49 4.87 0.6 0 0 1023.7 0 11.8 21.3 27.2 70.6 55.0 185.6
26 23:10 10.7 49 4.81 0.4 0 0 1023.7 0 11.6 21.2 27.0 70.2 54.4 183.6
26 23:00 10.8 49 4.84 0.5 0 0 1023.6 0 11.7 21.3 27.1 70.4 54.7 184.6
26 22:50 11.1 48 4.84 0.5 0 0 1023.6 0 11.7 21.2 27.0 70.1 54.5 183.9
26 22:40 10.8 48 4.75 0.2 0 0 1023.6 0 11.5 21.1 26.8 69.5 53.6 180.8
26 22:30 10.8 49 4.84 0.5 0 0 1023.6 0 11.7 21.3 27.1 70.4 54.7 184.6
26 22:20 11 48 4.81 0.4 0 0 1023.6 0 11.6 21.2 26.9 69.9 54.2 182.9
26 22:10 11.4 45 4.62 -0.1 0 0 1023.7 0 11.2 20.8 26.1 67.7 51.7 174.1
26 22:00 12 43 4.58 -0.2 2 6 1023.6 0 11.1 20.6 25.8 66.9 50.8 171.2
26 21:50 12.4 43 4.7 0.2 4 6 1023.6 0 11.4 20.7 26.1 67.7 52.0 175.2
26 21:40 12.5 43 4.73 0.3 6 6 1023.5 0 11.4 20.7 26.2 67.8 52.2 176.2

Last Refresh: 27-Sep-2020 14:59:11

Most of the information presented on this site is sourced from the Bureau of Meteorology.  Copyright in all material sourced from the Bureau of Meteorology resides with the Commonwealth of Australia.